createdAt,value
2018-12-29T00:01:56.892Z,78.40
2018-12-29T00:04:26.090Z,79.00
2018-12-29T00:06:55.312Z,79.70
2018-12-29T00:09:24.503Z,80.50
2018-12-29T00:11:53.868Z,80.70
2018-12-29T00:14:24.175Z,81.40
2018-12-29T00:16:53.425Z,81.20
2018-12-29T00:19:22.958Z,81.00
2018-12-29T00:21:51.619Z,81.80
2018-12-29T00:24:21.035Z,82.10
2018-12-29T00:26:49.545Z,82.70
2018-12-29T00:29:18.656Z,83.10
2018-12-29T00:31:48.238Z,83.50
2018-12-29T00:34:17.553Z,84.00
2018-12-29T00:36:46.716Z,84.30
2018-12-29T00:39:19.539Z,84.80
2018-12-29T00:41:50.104Z,85.30
2018-12-29T00:44:22.957Z,85.70
2018-12-29T00:46:52.967Z,85.80
2018-12-29T00:49:23.030Z,86.20
2018-12-29T00:51:52.684Z,86.40
2018-12-29T00:54:21.749Z,86.70
2018-12-29T00:56:50.911Z,86.90
2018-12-29T00:59:20.136Z,86.80
2018-12-29T01:01:49.751Z,87.00
2018-12-29T01:04:18.362Z,87.40
2018-12-29T01:06:47.035Z,88.00
2018-12-29T01:09:15.650Z,88.20
2018-12-29T01:11:44.276Z,88.70
2018-12-29T01:14:13.238Z,88.60
2018-12-29T01:16:42.177Z,88.90
2018-12-29T01:19:11.681Z,89.30
2018-12-29T01:22:01.369Z,89.80
2018-12-29T01:24:32.732Z,89.40
2018-12-29T01:27:01.860Z,89.40
2018-12-29T01:29:30.996Z,89.50
2018-12-29T01:32:00.050Z,89.50
2018-12-29T01:34:29.363Z,89.30
2018-12-29T01:36:58.607Z,89.40
2018-12-29T01:39:27.749Z,89.40
2018-12-29T01:41:56.858Z,89.40
2018-12-29T01:44:26.182Z,89.20
2018-12-29T01:46:57.280Z,89.10
2018-12-29T01:49:25.823Z,89.20
2018-12-29T01:51:55.369Z,89.20
2018-12-29T01:54:24.015Z,89.10
2018-12-29T01:56:54.513Z,89.30
2018-12-29T01:59:23.433Z,89.10
2018-12-29T02:01:52.925Z,89.30
2018-12-29T02:04:22.070Z,89.30
2018-12-29T02:06:52.073Z,89.20
2018-12-29T02:09:23.258Z,89.20
2018-12-29T02:11:53.106Z,89.40
2018-12-29T02:14:26.757Z,89.10
2018-12-29T02:16:56.046Z,89.10
2018-12-29T02:19:25.247Z,89.00
2018-12-29T02:21:53.801Z,89.50
2018-12-29T02:24:22.486Z,88.70
2018-12-29T02:26:51.107Z,88.40
2018-12-29T02:29:19.786Z,88.60
2018-12-29T02:31:48.414Z,88.30
2018-12-29T02:34:17.988Z,88.00
2018-12-29T02:36:47.276Z,87.90
2018-12-29T02:39:15.889Z,87.70
2018-12-29T02:41:44.528Z,87.50
2018-12-29T02:44:13.160Z,87.40
2018-12-29T02:46:41.879Z,87.50
2018-12-29T02:49:10.625Z,87.40
2018-12-29T02:51:39.293Z,87.20
2018-12-29T02:54:08.684Z,87.30
2018-12-29T02:56:38.070Z,87.00
2018-12-29T02:59:07.401Z,86.60
2018-12-29T03:01:36.496Z,86.50
2018-12-29T03:04:05.137Z,86.40
2018-12-29T03:06:33.780Z,86.10
2018-12-29T03:09:02.410Z,86.30
2018-12-29T03:11:30.960Z,86.30
2018-12-29T03:13:59.616Z,86.30
2018-12-29T03:16:28.990Z,86.60
2018-12-29T03:18:57.601Z,86.40
2018-12-29T03:21:26.190Z,86.10
2018-12-29T03:23:54.816Z,85.90
2018-12-29T03:26:24.333Z,85.80
2018-12-29T03:28:52.908Z,85.70
2018-12-29T03:31:22.198Z,85.80
2018-12-29T03:33:51.775Z,85.70
2018-12-29T03:36:20.956Z,85.70
2018-12-29T03:38:50.552Z,85.80
2018-12-29T03:41:19.936Z,85.90
2018-12-29T03:43:49.136Z,86.10
2018-12-29T03:46:17.742Z,85.90
2018-12-29T03:48:46.407Z,86.40
2018-12-29T03:51:16.056Z,86.50
2018-12-29T03:53:44.694Z,87.10
2018-12-29T03:56:13.438Z,87.00
2018-12-29T03:58:42.244Z,87.40
2018-12-29T04:01:10.911Z,87.40
2018-12-29T04:03:39.570Z,87.10
2018-12-29T04:06:08.232Z,87.70
2018-12-29T04:08:36.866Z,87.70
2018-12-29T04:11:05.469Z,88.10
2018-12-29T04:13:36.592Z,87.90
2018-12-29T04:16:05.974Z,88.20
2018-12-29T04:18:35.577Z,88.10
2018-12-29T04:21:04.798Z,88.40
2018-12-29T04:23:33.457Z,88.50
2018-12-29T04:26:02.071Z,88.60
2018-12-29T04:28:30.646Z,88.90
2018-12-29T04:30:59.252Z,89.10
2018-12-29T04:33:28.170Z,89.40
2018-12-29T04:35:58.059Z,89.20
2018-12-29T04:38:27.570Z,89.30
2018-12-29T04:40:57.165Z,89.70
2018-12-29T04:43:25.720Z,89.60
2018-12-29T04:45:55.114Z,89.80
2018-12-29T04:48:23.630Z,90.00
2018-12-29T04:50:52.180Z,89.80
2018-12-29T04:53:21.621Z,89.50
2018-12-29T04:55:50.927Z,89.70
2018-12-29T04:58:19.583Z,89.50
2018-12-29T05:00:48.087Z,89.50
2018-12-29T05:03:16.783Z,89.20
2018-12-29T05:05:46.822Z,89.00
2018-12-29T05:08:16.057Z,89.00
2018-12-29T05:10:45.974Z,88.90
2018-12-29T05:13:15.609Z,88.80
2018-12-29T05:15:45.138Z,88.70
2018-12-29T05:18:14.302Z,88.80
2018-12-29T05:20:42.966Z,88.90
2018-12-29T05:23:11.734Z,88.30
2018-12-29T05:25:40.546Z,87.60
2018-12-29T05:28:09.213Z,87.40
2018-12-29T05:30:37.841Z,87.40
2018-12-29T05:33:06.501Z,87.30
2018-12-29T05:35:35.194Z,87.20
2018-12-29T05:38:05.045Z,87.20
2018-12-29T05:40:34.305Z,87.10
2018-12-29T05:43:03.979Z,87.00
2018-12-29T05:45:34.266Z,86.90
2018-12-29T05:48:03.376Z,86.70
2018-12-29T05:50:32.962Z,86.60
2018-12-29T05:53:03.024Z,86.10
2018-12-29T05:55:32.392Z,86.20
2018-12-29T05:58:01.089Z,85.60
2018-12-29T06:00:29.830Z,85.60
2018-12-29T06:02:58.592Z,85.40
2018-12-29T06:05:27.369Z,85.50
2018-12-29T06:07:56.123Z,85.20
2018-12-29T06:10:24.836Z,85.30
2018-12-29T06:12:53.654Z,84.90
2018-12-29T06:15:22.285Z,84.50
2018-12-29T06:17:50.988Z,83.80
2018-12-29T06:20:19.649Z,83.40
2018-12-29T06:22:48.414Z,82.90
2018-12-29T06:25:17.827Z,82.90
2018-12-29T06:27:47.370Z,82.60
2018-12-29T06:30:16.699Z,82.60
2018-12-29T06:32:46.779Z,81.60
2018-12-29T06:35:15.423Z,81.80
2018-12-29T06:37:44.034Z,81.30
2018-12-29T06:40:12.596Z,80.70
2018-12-29T06:42:42.274Z,79.30
2018-12-29T06:45:12.032Z,79.80
2018-12-29T06:47:41.133Z,79.10
2018-12-29T06:50:10.033Z,78.80
2018-12-29T06:52:39.302Z,78.30
2018-12-29T06:55:07.917Z,78.20
2018-12-29T06:57:37.120Z,77.40
2018-12-29T07:00:07.985Z,77.20
2018-12-29T07:02:36.605Z,76.90
2018-12-29T07:05:05.270Z,75.50
2018-12-29T07:07:33.880Z,74.20
2018-12-29T07:10:03.172Z,73.10
2018-12-29T07:12:34.226Z,70.20
2018-12-29T07:15:03.803Z,70.30
2018-12-29T07:17:33.773Z,69.10
2018-12-29T07:20:02.956Z,69.10
2018-12-29T07:22:32.097Z,68.20
2018-12-29T07:25:01.345Z,67.40
2018-12-29T07:27:31.528Z,67.60
2018-12-29T07:30:00.844Z,67.30
2018-12-29T07:32:29.821Z,66.90
2018-12-29T07:35:00.152Z,66.60
2018-12-29T07:37:29.272Z,67.20
2018-12-29T07:39:58.662Z,67.40
2018-12-29T07:42:27.244Z,68.30
2018-12-29T07:44:55.782Z,68.70
2018-12-29T07:47:24.482Z,67.80
2018-12-29T07:49:53.733Z,68.00
2018-12-29T07:52:22.863Z,68.10
2018-12-29T07:54:52.187Z,68.30
2018-12-29T07:57:21.220Z,68.40
2018-12-29T07:59:50.790Z,68.60
2018-12-29T08:02:20.232Z,69.00
2018-12-29T08:04:49.310Z,69.00
2018-12-29T08:07:20.334Z,69.20
2018-12-29T08:09:49.617Z,69.60
2018-12-29T08:12:18.716Z,70.40
2018-12-29T08:14:47.759Z,70.60
2018-12-29T08:17:17.462Z,70.70
2018-12-29T08:19:46.552Z,71.70
2018-12-29T08:22:15.596Z,71.50
2018-12-29T08:24:44.251Z,71.90
2018-12-29T08:27:12.916Z,73.10
2018-12-29T08:29:41.539Z,74.20
2018-12-29T08:32:10.149Z,74.70
2018-12-29T08:34:39.078Z,75.20
2018-12-29T08:37:08.309Z,75.60
2018-12-29T08:39:37.816Z,76.00
2018-12-29T08:42:06.806Z,76.60
2018-12-29T08:44:35.879Z,77.70
2018-12-29T08:47:05.334Z,78.00
2018-12-29T08:49:35.053Z,78.40
2018-12-29T08:52:04.337Z,79.50
2018-12-29T08:54:33.496Z,80.40
2018-12-29T08:57:02.697Z,80.70
2018-12-29T08:59:31.936Z,80.50
2018-12-29T09:02:01.312Z,80.60
2018-12-29T09:04:30.582Z,80.10
2018-12-29T09:06:59.573Z,80.00
2018-12-29T09:09:28.713Z,79.70
2018-12-29T09:11:57.380Z,79.60
2018-12-29T09:14:25.990Z,79.20
2018-12-29T09:16:54.598Z,79.10
2018-12-29T09:19:27.226Z,79.60
2018-12-29T09:21:54.290Z,79.60
2018-12-29T09:24:23.570Z,80.00
2018-12-29T09:26:52.725Z,80.20
2018-12-29T09:29:21.971Z,80.00
2018-12-29T09:31:51.974Z,80.00
2018-12-29T09:34:22.510Z,80.40
2018-12-29T09:36:58.334Z,80.50
2018-12-29T09:39:27.376Z,80.40
2018-12-29T09:41:56.414Z,80.70
2018-12-29T09:44:26.535Z,79.60
2018-12-29T09:46:55.807Z,79.90
2018-12-29T09:49:24.960Z,80.50
2018-12-29T09:51:54.562Z,80.40
2018-12-29T09:54:23.802Z,80.70
2018-12-29T09:56:53.003Z,81.10
2018-12-29T09:59:22.543Z,80.90
2018-12-29T10:01:51.192Z,81.40
2018-12-29T10:04:20.570Z,82.10
2018-12-29T10:06:49.864Z,82.80
2018-12-29T10:09:19.188Z,83.20
2018-12-29T10:11:48.479Z,84.00
2018-12-29T10:14:17.066Z,84.40
2018-12-29T10:16:46.290Z,85.10
2018-12-29T10:19:15.628Z,85.40
2018-12-29T10:21:44.883Z,85.70
2018-12-29T10:24:14.228Z,86.00
2018-12-29T10:26:43.306Z,85.90
2018-12-29T10:29:12.181Z,86.50
2018-12-29T10:31:42.156Z,86.90
2018-12-29T10:34:11.333Z,86.70
2018-12-29T10:36:40.056Z,87.20
2018-12-29T10:39:08.610Z,87.20
2018-12-29T10:41:37.230Z,87.30
2018-12-29T10:44:06.641Z,87.60
2018-12-29T10:46:35.209Z,88.00
2018-12-29T10:49:06.409Z,88.10
2018-12-29T10:51:35.394Z,88.60
2018-12-29T10:54:04.959Z,88.90
2018-12-29T10:56:33.912Z,89.40
2018-12-29T10:59:03.085Z,89.60
2018-12-29T11:01:32.002Z,89.80
2018-12-29T11:04:08.266Z,90.10
2018-12-29T11:06:37.678Z,90.20
2018-12-29T11:09:08.086Z,90.20
2018-12-29T11:11:37.269Z,90.30
2018-12-29T11:14:06.485Z,90.40
2018-12-29T11:16:35.584Z,90.40
2018-12-29T11:19:04.653Z,90.60
2018-12-29T11:21:33.210Z,90.70
2018-12-29T11:24:01.853Z,90.80
2018-12-29T11:26:30.478Z,90.70
2018-12-29T11:28:59.839Z,90.80
2018-12-29T11:31:28.993Z,90.80
2018-12-29T11:33:58.283Z,90.90
2018-12-29T11:36:27.441Z,90.90
2018-12-29T11:38:56.638Z,90.90
2018-12-29T11:41:26.220Z,91.10
2018-12-29T11:43:56.420Z,91.10
2018-12-29T11:46:25.613Z,91.10
2018-12-29T11:48:54.725Z,91.10
2018-12-29T11:51:24.284Z,91.00
2018-12-29T11:53:53.509Z,91.20
2018-12-29T11:56:25.124Z,91.30
2018-12-29T11:58:54.424Z,91.20
2018-12-29T12:01:24.103Z,91.30
2018-12-29T12:03:53.152Z,91.40
2018-12-29T12:06:22.333Z,91.50
2018-12-29T12:08:51.656Z,91.60
2018-12-29T12:11:21.608Z,91.70
2018-12-29T12:13:50.692Z,91.80
2018-12-29T12:16:19.965Z,91.90
2018-12-29T12:18:48.585Z,92.00
2018-12-29T12:21:17.297Z,92.00
2018-12-29T12:23:46.445Z,92.00
2018-12-29T12:26:16.678Z,92.10
2018-12-29T12:28:46.112Z,92.20
2018-12-29T12:31:15.351Z,92.20
2018-12-29T12:33:44.726Z,92.20
2018-12-29T12:36:13.966Z,92.30
2018-12-29T12:38:43.325Z,92.30
2018-12-29T12:41:13.351Z,92.30
2018-12-29T12:43:42.896Z,92.30
2018-12-29T12:46:12.395Z,92.20
2018-12-29T12:48:41.954Z,92.20
2018-12-29T12:51:10.609Z,92.10
2018-12-29T12:53:39.243Z,92.10
2018-12-29T12:56:07.877Z,92.20
2018-12-29T12:58:37.045Z,92.20
2018-12-29T13:01:06.510Z,92.20
2018-12-29T13:03:35.846Z,92.30
2018-12-29T13:06:05.240Z,92.40
2018-12-29T13:08:34.894Z,92.30
2018-12-29T13:11:04.265Z,92.50
2018-12-29T13:13:33.473Z,92.70
2018-12-29T13:16:02.778Z,92.70
2018-12-29T13:18:32.020Z,92.80
2018-12-29T13:21:02.916Z,92.90
2018-12-29T13:23:33.503Z,92.90
2018-12-29T13:26:02.829Z,93.00
2018-12-29T13:28:31.834Z,93.20
2018-12-29T13:31:00.872Z,93.20
2018-12-29T13:33:29.764Z,93.40
2018-12-29T13:35:59.015Z,93.30
2018-12-29T13:38:27.921Z,93.30
2018-12-29T13:40:56.561Z,93.50
2018-12-29T13:43:25.211Z,93.50
2018-12-29T13:45:54.691Z,93.60
2018-12-29T13:48:23.843Z,93.60
2018-12-29T13:50:53.532Z,93.90
2018-12-29T13:53:23.012Z,93.90
2018-12-29T13:55:52.251Z,93.90
2018-12-29T13:58:21.396Z,93.90
2018-12-29T14:00:54.732Z,93.90
2018-12-29T14:03:24.014Z,93.90
2018-12-29T14:05:54.243Z,94.00
2018-12-29T14:08:23.693Z,94.00
2018-12-29T14:10:52.996Z,94.00
2018-12-29T14:13:22.320Z,93.90
2018-12-29T14:15:51.675Z,93.90
2018-12-29T14:18:20.345Z,94.00
2018-12-29T14:20:48.947Z,94.00
2018-12-29T14:23:17.591Z,94.00
2018-12-29T14:25:46.236Z,93.80
2018-12-29T14:28:14.872Z,93.80
2018-12-29T14:30:44.090Z,93.70
2018-12-29T14:33:13.425Z,93.60
2018-12-29T14:35:42.690Z,93.50
2018-12-29T14:38:11.990Z,93.40
2018-12-29T14:40:40.910Z,93.30
2018-12-29T14:43:10.533Z,93.20
2018-12-29T14:45:39.666Z,93.20
2018-12-29T14:48:09.005Z,93.00
2018-12-29T14:50:38.302Z,93.00
2018-12-29T14:53:08.499Z,92.80
2018-12-29T14:55:37.828Z,92.80
2018-12-29T14:58:07.007Z,92.80
2018-12-29T15:00:36.062Z,92.60
2018-12-29T15:03:04.937Z,92.40
2018-12-29T15:05:33.570Z,92.40
2018-12-29T15:08:02.208Z,92.30
2018-12-29T15:10:30.853Z,92.10
2018-12-29T15:12:59.462Z,92.00
2018-12-29T15:15:29.726Z,91.90
2018-12-29T15:17:58.891Z,92.00
2018-12-29T15:20:28.326Z,92.00
2018-12-29T15:23:02.019Z,92.00
2018-12-29T15:25:31.264Z,92.00
2018-12-29T15:28:00.767Z,92.00
2018-12-29T15:30:30.125Z,92.10
2018-12-29T15:32:59.429Z,92.20
2018-12-29T15:35:30.363Z,92.10
2018-12-29T15:38:00.889Z,92.00
2018-12-29T15:40:31.089Z,92.00
2018-12-29T15:43:00.079Z,92.10
2018-12-29T15:45:29.508Z,92.10
2018-12-29T15:47:58.165Z,92.10
2018-12-29T15:50:26.770Z,92.10
2018-12-29T15:52:56.661Z,92.10
2018-12-29T15:55:25.820Z,92.00
2018-12-29T15:57:55.330Z,92.00
2018-12-29T16:00:24.821Z,91.90
2018-12-29T16:02:54.362Z,91.90
2018-12-29T16:05:24.801Z,91.70
2018-12-29T16:07:54.252Z,91.50
2018-12-29T16:10:23.568Z,91.40
2018-12-29T16:12:53.064Z,91.50
2018-12-29T16:15:22.469Z,91.10
2018-12-29T16:17:51.895Z,91.00
2018-12-29T16:20:21.036Z,91.10
2018-12-29T16:22:50.741Z,91.20
2018-12-29T16:25:19.776Z,91.40
2018-12-29T16:27:49.954Z,91.30
2018-12-29T16:30:19.293Z,91.40
2018-12-29T16:32:48.243Z,91.30
2018-12-29T16:35:17.769Z,91.30
2018-12-29T16:37:46.448Z,91.50
2018-12-29T16:40:15.677Z,91.60
2018-12-29T16:42:44.917Z,91.50
2018-12-29T16:45:14.264Z,91.60
2018-12-29T16:47:43.560Z,91.60
2018-12-29T16:50:12.996Z,91.80
2018-12-29T16:52:41.993Z,91.80
2018-12-29T16:55:11.467Z,91.60
2018-12-29T16:57:40.532Z,91.60
2018-12-29T17:00:09.823Z,91.50
2018-12-29T17:02:39.166Z,91.40
2018-12-29T17:05:08.628Z,91.30
2018-12-29T17:07:38.225Z,91.20
2018-12-29T17:10:07.352Z,91.10
2018-12-29T17:12:36.976Z,90.90
2018-12-29T17:15:05.952Z,90.50
2018-12-29T17:17:34.613Z,90.00
2018-12-29T17:20:03.222Z,89.60
2018-12-29T17:22:32.115Z,89.90
2018-12-29T17:25:01.409Z,89.60
2018-12-29T17:27:30.031Z,88.60
2018-12-29T17:29:58.871Z,87.30
2018-12-29T17:32:28.410Z,87.00
2018-12-29T17:34:57.325Z,87.30
2018-12-29T17:37:26.554Z,86.50
2018-12-29T17:40:00.529Z,84.50
2018-12-29T17:42:29.852Z,85.00
2018-12-29T17:44:59.125Z,84.60
2018-12-29T17:47:28.301Z,84.60
2018-12-29T17:49:57.417Z,84.20
2018-12-29T17:52:27.087Z,84.30
2018-12-29T17:54:56.394Z,84.50
2018-12-29T17:57:25.661Z,84.40
2018-12-29T17:59:54.293Z,83.90
2018-12-29T18:02:23.469Z,84.10
2018-12-29T18:04:52.166Z,83.90
2018-12-29T18:07:21.092Z,84.30
2018-12-29T18:09:57.013Z,84.90
2018-12-29T18:12:21.367Z,84.50
2018-12-29T18:14:50.442Z,84.40
2018-12-29T18:17:19.667Z,84.70
2018-12-29T18:19:48.746Z,85.00
2018-12-29T18:22:18.067Z,84.60
2018-12-29T18:24:47.402Z,85.20
2018-12-29T18:27:18.168Z,85.10
2018-12-29T18:29:47.300Z,84.90
2018-12-29T18:32:16.497Z,84.10
2018-12-29T18:34:46.007Z,85.00
2018-12-29T18:37:15.600Z,85.10
2018-12-29T18:39:45.030Z,83.90
2018-12-29T18:42:15.821Z,83.00
2018-12-29T18:44:45.459Z,82.20
2018-12-29T18:47:15.843Z,82.70
2018-12-29T18:49:45.044Z,83.60
2018-12-29T18:52:13.682Z,84.00
2018-12-29T18:54:42.337Z,85.10
2018-12-29T18:57:11.269Z,85.00
2018-12-29T19:00:01.407Z,82.20
2018-12-29T19:02:30.933Z,82.50
2018-12-29T19:04:59.993Z,81.60
2018-12-29T19:07:29.214Z,80.60
2018-12-29T19:09:58.543Z,77.10
2018-12-29T19:12:27.754Z,76.30
2018-12-29T19:14:56.791Z,74.30
2018-12-29T19:17:25.842Z,74.10
2018-12-29T19:19:55.868Z,72.60
2018-12-29T19:22:25.243Z,73.40
2018-12-29T19:25:01.541Z,72.70
2018-12-29T19:27:30.781Z,71.70
2018-12-29T19:29:59.401Z,71.30
2018-12-29T19:32:28.979Z,70.00
2018-12-29T19:34:57.966Z,68.00
2018-12-29T19:37:26.542Z,68.20
2018-12-29T19:39:56.543Z,67.50
2018-12-29T19:42:26.537Z,66.20
2018-12-29T19:44:55.838Z,65.20
2018-12-29T19:47:29.117Z,66.80
2018-12-29T19:49:59.968Z,64.70
2018-12-29T19:52:29.124Z,64.60
2018-12-29T19:54:58.362Z,63.30
2018-12-29T19:57:27.642Z,64.90
2018-12-29T19:59:56.993Z,62.60
2018-12-29T20:02:26.517Z,62.40
2018-12-29T20:04:55.676Z,61.70
2018-12-29T20:07:25.024Z,60.40
2018-12-29T20:09:54.354Z,59.40
2018-12-29T20:12:23.187Z,60.60
2018-12-29T20:14:52.452Z,59.90
2018-12-29T20:17:21.131Z,60.00
2018-12-29T20:19:50.046Z,60.40
2018-12-29T20:22:19.381Z,59.70
2018-12-29T20:24:48.983Z,60.20
2018-12-29T20:27:17.949Z,60.00
2018-12-29T20:29:47.096Z,58.20
2018-12-29T20:32:17.923Z,58.00
2018-12-29T20:34:47.159Z,59.10
2018-12-29T20:37:16.039Z,56.90
2018-12-29T20:39:45.334Z,54.70
2018-12-29T20:42:14.749Z,54.30
2018-12-29T20:44:44.074Z,53.60
2018-12-29T20:47:13.594Z,54.00
2018-12-29T20:49:43.009Z,54.70
2018-12-29T20:52:12.376Z,55.70
2018-12-29T20:54:41.714Z,55.40
2018-12-29T20:57:10.322Z,54.30
2018-12-29T20:59:38.943Z,54.90
2018-12-29T21:02:07.992Z,55.50
2018-12-29T21:04:37.231Z,51.90
2018-12-29T21:07:05.867Z,52.50
2018-12-29T21:09:34.893Z,51.70
2018-12-29T21:12:04.380Z,50.60
2018-12-29T21:14:34.025Z,49.30
2018-12-29T21:17:03.463Z,49.00
2018-12-29T21:19:32.482Z,49.80
2018-12-29T21:22:01.533Z,48.30
2018-12-29T21:24:31.091Z,49.00
2018-12-29T21:27:00.633Z,48.20
2018-12-29T21:29:30.797Z,49.30
2018-12-29T21:31:59.920Z,49.10
2018-12-29T21:34:29.087Z,48.00
2018-12-29T21:36:58.204Z,48.90
2018-12-29T21:39:27.526Z,48.60
2018-12-29T21:41:56.790Z,47.30
2018-12-29T21:44:25.772Z,46.70
2018-12-29T21:46:54.457Z,45.20
2018-12-29T21:49:23.066Z,46.00
2018-12-29T21:51:52.374Z,43.60
2018-12-29T21:54:21.914Z,42.60
2018-12-29T21:56:50.984Z,42.10
2018-12-29T21:59:20.239Z,41.80
2018-12-29T22:01:49.393Z,42.70
2018-12-29T22:04:19.941Z,41.70
2018-12-29T22:06:49.421Z,43.80
2018-12-29T22:09:18.647Z,43.80
2018-12-29T22:11:47.855Z,42.30
2018-12-29T22:14:16.969Z,42.30
2018-12-29T22:16:46.683Z,41.90
2018-12-29T22:19:16.177Z,43.30
2018-12-29T22:21:45.802Z,42.30
2018-12-29T22:24:16.011Z,41.80
2018-12-29T22:26:45.341Z,42.00
2018-12-29T22:29:14.285Z,41.90
2018-12-29T22:31:43.876Z,40.90
2018-12-29T22:34:12.481Z,41.10
2018-12-29T22:36:41.136Z,40.90
2018-12-29T22:39:09.777Z,41.90
2018-12-29T22:41:38.966Z,43.60
2018-12-29T22:44:07.983Z,42.10
2018-12-29T22:46:37.321Z,43.30
2018-12-29T22:49:06.629Z,42.70
2018-12-29T22:51:35.865Z,43.70
2018-12-29T22:54:05.215Z,43.90
2018-12-29T22:56:34.342Z,45.30
2018-12-29T22:59:04.359Z,45.80
2018-12-29T23:01:33.383Z,46.00
2018-12-29T23:04:02.459Z,45.30
2018-12-29T23:06:31.537Z,46.20
2018-12-29T23:09:01.098Z,46.40
2018-12-29T23:11:29.730Z,46.70
2018-12-29T23:13:58.314Z,48.50
2018-12-29T23:16:26.968Z,50.80
2018-12-29T23:18:55.992Z,53.20
2018-12-29T23:21:25.278Z,56.60
2018-12-29T23:24:03.493Z,58.80
2018-12-29T23:26:32.686Z,61.40
2018-12-29T23:29:03.328Z,63.20
2018-12-29T23:31:32.782Z,64.00
2018-12-29T23:34:02.057Z,64.70
2018-12-29T23:36:31.610Z,66.10
2018-12-29T23:39:00.951Z,67.10
2018-12-29T23:41:30.139Z,67.90
2018-12-29T23:43:59.441Z,69.20
2018-12-29T23:46:28.879Z,69.40
2018-12-29T23:48:58.912Z,70.80
2018-12-29T23:51:28.412Z,71.50
2018-12-29T23:53:59.271Z,72.50
2018-12-29T23:56:28.111Z,73.00
2018-12-29T23:58:56.740Z,73.20
